EKVG

Vagar Airport

Vagar, Denmark
METAR EKVG 201320Z AUTO VRB06G25KT 1800NDV +DZ OVC003/// 11/11 Q1004
Observed Flight Rules
Oct-20 @ 13:20 UTC (29 minutes ago)
Wind Clouds Conditions
Variable at 6 knots
 Gusting to 25 knots
  • Overcast at 300' AGL
  • Heavy Drizzle
Temperatures Readings
Current 11°C / 52°F
Dewpoint 11°C / 52°F
Humidity 100%
Altimeter 29.65" Hg
Pressure 1004 hPa
Elevation 85
METAR EKVG 201320Z AUTO VRB06G25KT 1800NDV +DZ OVC003/// 11/11 Q1004
Observed Flight Rules
Oct-20 @ 13:20 UTC
(29 minutes ago)
Wind
Variable at 6 knots
 Gusting to 25 knots
Clouds
  • Overcast at 300' AGL
Conditions
  • Heavy Drizzle
Temperature Dewpoint
11°C / 52°F 11°C / 52°F
Humidity Altimeter Pressure
100% 29.65" Hg 1004 hPa